Time;durP1;ratioP1;P1;durP2;ratioP2;P2;SDS_P1;SDS_P2;PMS_P1;PMS_P2;Temp;Humidity;BMP_temperature;BMP_pressure;BME280_temperature;BME280_humidity;BME280_pressure;Samples;Min_cycle;Max_cycle;Signal;HPM_P1;HPM_P2
2022/07/25 00:01:33;;;;;;;2.15;2.05;;;23.90;92.90;;;;;;5026067;28;20957;-69
2022/07/25 00:04:00;;;;;;;1.95;1.85;;;23.80;92.40;;;;;;5026949;28;20212;-69
2022/07/25 00:06:27;;;;;;;1.70;1.70;;;23.80;92.30;;;;;;5027229;28;20205;-69
2022/07/25 00:08:54;;;;;;;1.88;1.77;;;23.80;92.20;;;;;;5026892;28;20240;-69
2022/07/25 00:11:22;;;;;;;1.60;1.50;;;23.80;92.30;;;;;;5026794;28;20327;-69
2022/07/25 00:13:48;;;;;;;2.95;1.60;;;23.80;92.00;;;;;;5011890;28;20208;-69
2022/07/25 00:16:15;;;;;;;2.90;1.85;;;23.70;92.00;;;;;;5006933;28;20292;-69
2022/07/25 00:18:42;;;;;;;2.25;1.80;;;23.70;92.10;;;;;;5013977;28;20208;-69
2022/07/25 00:21:09;;;;;;;1.83;1.73;;;23.70;92.10;;;;;;5026726;28;20216;-69
2022/07/25 00:23:36;;;;;;;2.00;1.90;;;23.80;92.00;;;;;;5026660;28;20212;-69
2022/07/25 00:26:10;;;;;;;3.40;2.10;;;23.70;92.00;;;;;;5026321;28;20800;-69
2022/07/25 00:28:38;;;;;;;2.33;2.13;;;23.70;92.20;;;;;;5026404;28;20224;-69
2022/07/25 00:31:11;;;;;;;1.50;1.40;;;23.60;91.90;;;;;;5025983;28;20201;-69
2022/07/25 00:33:38;;;;;;;2.00;1.90;;;23.70;92.00;;;;;;5011612;28;20591;-69
2022/07/25 00:36:09;;;;;;;1.70;1.60;;;23.70;92.10;;;;;;5006642;28;20272;-69
2022/07/25 00:38:36;;;;;;;1.63;1.63;;;23.60;91.90;;;;;;5006903;28;20205;-69
2022/07/25 00:41:07;;;;;;;1.80;1.73;;;23.60;91.90;;;;;;5013707;28;20212;-69
2022/07/25 00:43:34;;;;;;;1.73;1.63;;;23.60;91.90;;;;;;5025989;28;20204;-70
2022/07/25 00:46:10;;;;;;;1.90;1.80;;;23.60;91.80;;;;;;5026412;28;20213;-70
2022/07/25 00:48:37;;;;;;;1.63;1.55;;;23.60;91.70;;;;;;5026093;28;20381;-70
2022/07/25 00:51:11;;;;;;;1.50;1.50;;;23.50;91.70;;;;;;5026210;28;20236;-71
2022/07/25 00:53:39;;;;;;;1.52;1.40;;;23.50;91.70;;;;;;5026191;28;20209;-71
2022/07/25 00:56:09;;;;;;;1.77;1.67;;;23.50;91.60;;;;;;5010367;28;20540;-70
2022/07/25 00:58:36;;;;;;;1.50;1.40;;;23.60;91.70;;;;;;5007002;28;20213;-70
2022/07/25 01:01:12;;;;;;;1.80;1.70;;;23.50;91.70;;;;;;5024258;28;20208;-70
2022/07/25 01:03:39;;;;;;;1.58;1.58;;;23.50;91.50;;;;;;5026197;28;20207;-70
2022/07/25 01:06:09;;;;;;;1.52;1.50;;;23.50;91.40;;;;;;5026065;28;20215;-71
2022/07/25 01:08:36;;;;;;;2.03;1.92;;;23.40;91.30;;;;;;5025251;28;20675;-71
2022/07/25 01:11:02;;;;;;;1.70;1.70;;;23.50;91.50;;;;;;5025403;28;20609;-71
2022/07/25 01:13:32;;;;;;;2.00;1.77;;;23.50;91.30;;;;;;5026066;28;20231;-70
2022/07/25 01:15:59;;;;;;;1.65;1.55;;;23.50;91.20;;;;;;5025692;28;20300;-70
2022/07/25 01:18:27;;;;;;;1.75;1.65;;;23.40;91.10;;;;;;5025704;28;20205;-71
2022/07/25 01:20:55;;;;;;;1.60;1.60;;;23.50;91.30;;;;;;5025703;28;20216;-71
2022/07/25 01:23:22;;;;;;;1.70;1.60;;;23.40;91.20;;;;;;5025854;28;20213;-68
2022/07/25 01:25:49;;;;;;;1.70;1.60;;;23.40;91.50;;;;;;5025183;28;20579;-71
2022/07/25 01:28:17;;;;;;;1.80;1.70;;;23.40;91.30;;;;;;5025540;28;20328;-71
2022/07/25 01:30:43;;;;;;;1.80;1.70;;;23.40;91.30;;;;;;5018043;28;20221;-71
2022/07/25 01:33:14;;;;;;;1.80;1.70;;;23.40;91.30;;;;;;5019065;28;20231;-71
2022/07/25 01:35:41;;;;;;;2.03;1.73;;;23.40;91.20;;;;;;5025748;28;20205;-71
2022/07/25 01:38:09;;;;;;;1.90;1.80;;;23.30;91.30;;;;;;5025422;28;20212;-71
2022/07/25 01:40:36;;;;;;;1.50;1.40;;;23.30;91.10;;;;;;5025677;28;20204;-71
2022/07/25 01:43:03;;;;;;;1.58;1.58;;;23.30;91.30;;;;;;5015021;28;20210;-72
2022/07/25 01:45:30;;;;;;;1.70;1.60;;;23.30;91.20;;;;;;5006024;28;20209;-72
2022/07/25 01:47:57;;;;;;;1.70;1.60;;;23.20;91.30;;;;;;5006205;28;20209;-72
2022/07/25 01:50:25;;;;;;;1.85;1.75;;;23.20;91.20;;;;;;5025587;28;20297;-72
2022/07/25 01:52:51;;;;;;;1.55;1.45;;;23.30;91.20;;;;;;5009898;28;20459;-72
2022/07/25 01:55:20;;;;;;;2.38;1.90;;;23.20;91.20;;;;;;5013773;28;20198;-72
2022/07/25 01:57:46;;;;;;;2.58;2.15;;;23.20;91.30;;;;;;5005796;28;20217;-72
2022/07/25 02:00:15;;;;;;;1.92;1.83;;;23.20;91.30;;;;;;5005234;28;20205;-71
2022/07/25 02:02:42;;;;;;;1.75;1.65;;;23.20;91.30;;;;;;5005663;28;20210;-71
2022/07/25 02:05:11;;;;;;;1.73;1.65;;;23.20;91.40;;;;;;5005241;28;20664;-71
2022/07/25 02:07:38;;;;;;;2.03;1.60;;;23.20;91.40;;;;;;5005820;28;20209;-72
2022/07/25 02:10:07;;;;;;;1.70;1.60;;;23.10;91.40;;;;;;5005146;28;20660;-71
2022/07/25 02:12:35;;;;;;;1.98;1.83;;;23.10;91.40;;;;;;5004203;28;20312;-71
2022/07/25 02:15:02;;;;;;;1.73;1.63;;;23.10;92.00;;;;;;5005028;28;20223;-71
2022/07/25 02:17:28;;;;;;;1.80;1.70;;;23.00;91.60;;;;;;5005108;28;20206;-71
2022/07/25 02:19:55;;;;;;;1.75;1.63;;;22.90;92.30;;;;;;5023855;28;20212;-71
2022/07/25 02:22:22;;;;;;;1.77;1.67;;;22.90;92.30;;;;;;5025116;28;20216;-72
2022/07/25 02:24:49;;;;;;;3.15;1.75;;;22.90;92.40;;;;;;5024989;28;20294;-71
2022/07/25 02:27:16;;;;;;;1.75;1.75;;;22.80;92.70;;;;;;5024682;28;20204;-71
2022/07/25 02:29:44;;;;;;;2.17;1.95;;;22.60;93.10;;;;;;5024926;28;20240;-70
2022/07/25 02:32:11;;;;;;;2.30;2.03;;;22.60;92.90;;;;;;5024208;28;20221;-71
2022/07/25 02:34:37;;;;;;;2.28;2.03;;;22.60;93.30;;;;;;5024740;28;20208;-70
2022/07/25 02:37:04;;;;;;;2.83;1.90;;;22.60;93.20;;;;;;5024597;28;20500;-70
2022/07/25 02:39:31;;;;;;;2.00;1.90;;;22.60;93.20;;;;;;5024545;28;20201;-69
2022/07/25 02:41:58;;;;;;;2.60;1.85;;;22.60;93.70;;;;;;5024432;28;20209;-69
2022/07/25 02:44:25;;;;;;;2.22;1.90;;;22.60;93.50;;;;;;5023737;28;20212;-69
2022/07/25 02:46:53;;;;;;;1.98;1.80;;;22.60;93.90;;;;;;5024796;28;20208;-69
2022/07/25 02:49:19;;;;;;;1.73;1.60;;;22.60;93.60;;;;;;5024313;28;20241;-69
2022/07/25 02:51:46;;;;;;;1.85;1.60;;;22.60;93.60;;;;;;5024578;28;20204;-69
2022/07/25 02:54:13;;;;;;;2.00;1.90;;;22.60;93.20;;;;;;5024050;28;20278;-70
2022/07/25 02:56:40;;;;;;;2.67;2.40;;;22.60;93.30;;;;;;5024190;28;20212;-70
2022/07/25 02:59:07;;;;;;;1.73;1.63;;;22.50;93.30;;;;;;5024306;28;20208;-70
2022/07/25 03:01:33;;;;;;;2.00;1.90;;;22.50;93.40;;;;;;5023816;28;20228;-70
2022/07/25 03:04:02;;;;;;;1.88;1.77;;;22.50;93.50;;;;;;5024178;28;20207;-69
2022/07/25 03:06:28;;;;;;;2.80;1.88;;;22.50;93.60;;;;;;5018932;28;20210;-71
2022/07/25 03:08:55;;;;;;;2.15;2.05;;;22.50;93.80;;;;;;5004511;28;20212;-69
2022/07/25 03:11:22;;;;;;;1.90;1.80;;;22.40;93.60;;;;;;5004344;28;20217;-68
2022/07/25 03:13:49;;;;;;;2.38;1.98;;;22.50;93.80;;;;;;5004277;28;20704;-68
2022/07/25 03:16:16;;;;;;;1.55;1.55;;;22.50;93.70;;;;;;5004550;28;20216;-68
2022/07/25 03:18:43;;;;;;;2.80;2.03;;;22.50;93.90;;;;;;5013384;28;20240;-68
2022/07/25 03:21:11;;;;;;;1.92;1.83;;;22.50;94.00;;;;;;5023979;28;20296;-68
2022/07/25 03:23:37;;;;;;;1.90;1.80;;;22.50;94.10;;;;;;5009460;28;20209;-68
2022/07/25 03:26:10;;;;;;;1.90;1.75;;;22.50;94.20;;;;;;5005466;28;20675;-68
2022/07/25 03:28:37;;;;;;;2.08;1.95;;;22.50;94.20;;;;;;5013204;28;20197;-68
2022/07/25 03:31:13;;;;;;;2.20;2.00;;;22.50;93.90;;;;;;5025580;28;20204;-68
2022/07/25 03:33:40;;;;;;;2.22;2.13;;;22.50;94.00;;;;;;5025385;28;20221;-68
2022/07/25 03:36:14;;;;;;;1.77;1.77;;;22.50;94.20;;;;;;5024509;28;20866;-68
2022/07/25 03:38:41;;;;;;;1.90;1.80;;;22.40;94.30;;;;;;5025009;28;20208;-67
2022/07/25 03:41:11;;;;;;;4.10;2.00;;;22.50;94.20;;;;;;5015901;28;20198;-66
2022/07/25 03:43:38;;;;;;;1.98;1.88;;;22.40;94.10;;;;;;5005235;28;20205;-67
2022/07/25 03:46:11;;;;;;;2.10;2.00;;;22.40;94.40;;;;;;5005123;28;20210;-67
2022/07/25 03:48:38;;;;;;;1.60;1.52;;;22.40;94.30;;;;;;5006844;28;20240;-67
2022/07/25 03:51:10;;;;;;;2.00;1.90;;;22.40;94.30;;;;;;5024891;28;20215;-67
2022/07/25 03:56:19;;;;;;;1.98;1.88;;;22.40;94.60;;;;;;5024042;28;20205;-65
2022/07/25 03:58:46;;;;;;;1.92;1.83;;;22.40;94.60;;;;;;5024868;28;20209;-65
2022/07/25 04:01:13;;;;;;;1.92;1.67;;;22.40;94.30;;;;;;5025276;28;20215;-65
2022/07/25 04:03:40;;;;;;;1.98;1.88;;;22.40;94.40;;;;;;5022529;28;20678;-65
2022/07/25 04:06:09;;;;;;;2.40;2.20;;;22.40;94.60;;;;;;5038349;27;20232;-65
2022/07/25 04:08:37;;;;;;;2.00;1.90;;;22.40;94.10;;;;;;5036799;27;20208;-65
2022/07/25 04:11:10;;;;;;;2.08;1.98;;;22.40;93.90;;;;;;5019806;28;20660;-65
2022/07/25 04:13:37;;;;;;;3.70;1.70;;;22.40;93.70;;;;;;5019997;27;20230;-65
2022/07/25 04:16:11;;;;;;;1.88;1.77;;;22.40;93.80;;;;;;5017526;28;20209;-65
2022/07/25 04:18:38;;;;;;;2.28;2.00;;;22.40;93.90;;;;;;5038657;27;20220;-65
2022/07/25 04:21:11;;;;;;;2.40;2.30;;;22.40;94.30;;;;;;5018369;28;20202;-64
2022/07/25 04:23:39;;;;;;;2.42;2.10;;;22.30;94.40;;;;;;5019602;28;20204;-65
2022/07/25 04:26:09;;;;;;;2.53;2.10;;;22.30;94.40;;;;;;5022445;27;20208;-65
2022/07/25 04:28:36;;;;;;;2.72;1.80;;;22.20;94.20;;;;;;5018119;28;20208;-65
2022/07/25 04:31:03;;;;;;;1.80;1.80;;;22.20;94.30;;;;;;5028934;28;20354;-66
2022/07/25 04:33:30;;;;;;;1.90;1.80;;;22.20;94.40;;;;;;5020851;28;20224;-66
2022/07/25 04:35:56;;;;;;;2.63;2.13;;;22.20;94.50;;;;;;5029782;28;20311;-66
2022/07/25 04:38:23;;;;;;;3.35;1.73;;;22.20;94.20;;;;;;5021490;27;20213;-66
2022/07/25 04:40:51;;;;;;;2.10;2.00;;;22.10;94.50;;;;;;5016029;28;20554;-66
2022/07/25 04:43:20;;;;;;;2.45;2.30;;;22.10;94.60;;;;;;5020141;28;20219;-66
2022/07/25 04:45:47;;;;;;;2.15;1.95;;;22.10;94.40;;;;;;5018110;28;20201;-66
2022/07/25 04:48:13;;;;;;;2.40;2.00;;;22.10;94.50;;;;;;5019201;28;20240;-66
2022/07/25 04:50:40;;;;;;;2.25;2.10;;;22.10;94.90;;;;;;5014554;28;20678;-66
2022/07/25 04:53:07;;;;;;;2.13;2.03;;;22.10;94.70;;;;;;5014320;28;20255;-66
2022/07/25 04:55:35;;;;;;;1.95;1.83;;;22.00;94.10;;;;;;5029263;27;20291;-66
2022/07/25 04:58:03;;;;;;;2.15;2.00;;;22.00;94.10;;;;;;5015596;28;20194;-67
2022/07/25 05:00:30;;;;;;;2.10;2.00;;;22.10;94.30;;;;;;5014789;28;20237;-66
2022/07/25 05:02:57;;;;;;;2.20;2.05;;;22.10;94.20;;;;;;5019026;28;20805;-66
2022/07/25 05:05:24;;;;;;;2.08;1.95;;;22.10;94.30;;;;;;5018722;28;20581;-66
2022/07/25 05:07:50;;;;;;;2.72;2.20;;;22.10;94.40;;;;;;5016226;28;20716;-66
2022/07/25 05:10:17;;;;;;;2.10;2.00;;;22.10;94.60;;;;;;5028150;27;20216;-67
2022/07/25 05:12:44;;;;;;;3.70;1.75;;;22.10;94.90;;;;;;5029498;28;20200;-67
2022/07/25 05:15:13;;;;;;;2.00;1.90;;;22.20;94.80;;;;;;5029429;27;20209;-66
2022/07/25 05:17:40;;;;;;;2.15;2.05;;;22.20;94.80;;;;;;5018381;28;20212;-66
2022/07/25 05:20:08;;;;;;;2.40;2.00;;;22.30;94.70;;;;;;5029396;27;20212;-66
2022/07/25 05:22:35;;;;;;;2.42;2.30;;;22.30;94.60;;;;;;5016083;28;20208;-66
2022/07/25 05:25:02;;;;;;;2.97;2.22;;;22.20;94.70;;;;;;5012953;28;20216;-66
2022/07/25 05:27:29;;;;;;;2.50;2.30;;;22.30;94.70;;;;;;5017033;28;20790;-67
2022/07/25 05:29:55;;;;;;;2.85;2.30;;;22.30;94.60;;;;;;5011749;28;20208;-67
2022/07/25 05:32:24;;;;;;;5.38;2.28;;;22.30;94.70;;;;;;5016590;28;20262;-67
2022/07/25 05:34:51;;;;;;;2.88;2.63;;;22.30;94.80;;;;;;5035432;27;20232;-66
2022/07/25 05:37:18;;;;;;;3.55;2.35;;;22.40;94.90;;;;;;5029377;28;20229;-66
2022/07/25 05:39:44;;;;;;;2.60;2.40;;;22.50;95.00;;;;;;5034867;27;20213;-67
2022/07/25 05:42:11;;;;;;;3.42;2.60;;;22.50;95.20;;;;;;5014953;28;20206;-66
2022/07/25 05:44:38;;;;;;;3.20;2.50;;;22.50;95.50;;;;;;5016861;28;20209;-66
2022/07/25 05:47:09;;;;;;;2.78;2.55;;;22.50;95.40;;;;;;5013235;28;20198;-66
2022/07/25 05:49:37;;;;;;;3.10;2.70;;;22.50;95.30;;;;;;5017316;28;20237;-66
2022/07/25 05:52:05;;;;;;;3.65;2.80;;;22.60;95.10;;;;;;5015635;28;20209;-66
2022/07/25 05:54:32;;;;;;;2.88;2.67;;;22.50;95.00;;;;;;5026951;27;20226;-66
2022/07/25 05:57:00;;;;;;;3.05;2.85;;;22.60;95.00;;;;;;5012894;28;20720;-66
2022/07/25 05:59:26;;;;;;;3.00;2.80;;;22.60;95.20;;;;;;5035207;27;20250;-67
2022/07/25 06:01:53;;;;;;;6.90;3.05;;;22.60;95.20;;;;;;5013370;28;20582;-67
2022/07/25 06:04:20;;;;;;;5.28;2.90;;;22.60;95.50;;;;;;5011475;28;20229;-67
2022/07/25 06:06:51;;;;;;;4.97;3.00;;;22.70;95.60;;;;;;5014830;28;20209;-67
2022/07/25 06:09:18;;;;;;;3.03;2.83;;;22.70;95.50;;;;;;5039910;28;20285;-66
2022/07/25 06:11:44;;;;;;;3.00;2.80;;;22.70;95.50;;;;;;5024449;27;20209;-66
2022/07/25 06:14:11;;;;;;;2.83;2.63;;;22.70;95.70;;;;;;5015052;28;20220;-66
2022/07/25 06:16:38;;;;;;;2.92;2.72;;;22.80;95.70;;;;;;5030273;28;20208;-66
2022/07/25 06:19:05;;;;;;;3.25;2.92;;;22.80;95.60;;;;;;5016436;28;20213;-66
2022/07/25 06:21:32;;;;;;;12.45;3.35;;;22.80;95.60;;;;;;5027386;27;20201;-66
2022/07/25 06:24:00;;;;;;;4.00;3.30;;;22.90;95.50;;;;;;5012157;28;20205;-66
2022/07/25 06:26:26;;;;;;;3.70;2.88;;;22.90;95.60;;;;;;5012014;28;20209;-66
2022/07/25 06:28:53;;;;;;;6.72;3.15;;;23.00;95.60;;;;;;5015516;28;20615;-66
2022/07/25 06:31:20;;;;;;;2.70;2.50;;;23.00;95.60;;;;;;5019447;28;20204;-67
2022/07/25 06:33:47;;;;;;;3.35;3.15;;;23.00;95.80;;;;;;5022969;28;20237;-66
2022/07/25 06:36:14;;;;;;;3.83;2.90;;;23.10;95.90;;;;;;5057375;28;20714;-66
2022/07/25 06:38:40;;;;;;;3.55;3.25;;;23.10;95.90;;;;;;5094644;27;20579;-66
2022/07/25 06:41:15;;;;;;;3.35;3.03;;;23.10;95.90;;;;;;5018175;28;20216;-66
2022/07/25 06:43:42;;;;;;;3.30;3.03;;;23.20;95.90;;;;;;5022937;28;20258;-66
2022/07/25 06:46:12;;;;;;;4.38;3.30;;;23.20;96.40;;;;;;5013750;28;20201;-66
2022/07/25 06:48:38;;;;;;;3.67;3.20;;;23.30;96.30;;;;;;5022595;28;20240;-67
2022/07/25 06:51:11;;;;;;;3.83;3.50;;;23.30;96.30;;;;;;5029537;28;20197;-66
2022/07/25 06:53:38;;;;;;;4.20;3.65;;;23.40;96.40;;;;;;5078421;28;20232;-66
2022/07/25 06:56:11;;;;;;;6.95;3.75;;;23.40;96.40;;;;;;5025931;28;20201;-67
2022/07/25 06:58:39;;;;;;;4.05;3.65;;;23.40;96.50;;;;;;5036672;28;20216;-66
2022/07/25 07:01:12;;;;;;;4.00;3.70;;;23.50;96.50;;;;;;5027370;28;20583;-66
2022/07/25 07:03:39;;;;;;;3.97;3.67;;;23.50;96.40;;;;;;5089998;27;20209;-66
2022/07/25 07:06:11;;;;;;;4.53;4.13;;;23.60;96.50;;;;;;5131709;27;20255;-66
2022/07/25 07:08:38;;;;;;;4.10;3.80;;;23.60;96.60;;;;;;5072815;27;20767;-66
2022/07/25 07:11:14;;;;;;;4.75;4.43;;;23.70;96.60;;;;;;5023381;28;20203;-66
2022/07/25 07:13:42;;;;;;;4.53;3.92;;;23.70;96.90;;;;;;5078069;27;20225;-66
2022/07/25 07:16:12;;;;;;;4.85;4.45;;;23.70;96.90;;;;;;5131185;27;20293;-66
2022/07/25 07:18:39;;;;;;;4.82;4.35;;;23.80;96.90;;;;;;5087865;27;20659;-66
2022/07/25 07:21:14;;;;;;;6.03;4.40;;;23.80;96.60;;;;;;5026992;28;20220;-66
2022/07/25 07:23:41;;;;;;;5.40;4.40;;;23.90;97.20;;;;;;5021973;28;20690;-66
2022/07/25 07:26:11;;;;;;;4.50;4.20;;;23.90;97.30;;;;;;5020792;28;20675;-67
2022/07/25 07:28:38;;;;;;;5.93;4.57;;;24.00;97.40;;;;;;5023409;28;20209;-67
2022/07/25 07:31:15;;;;;;;4.70;4.40;;;24.00;97.40;;;;;;5023849;28;20224;-67
2022/07/25 07:33:42;;;;;;;4.93;4.53;;;24.00;97.40;;;;;;5032938;28;20220;-67
2022/07/25 07:36:12;;;;;;;4.93;4.35;;;24.00;97.10;;;;;;5020784;28;20218;-67
2022/07/25 07:38:40;;;;;;;5.00;4.55;;;24.10;97.40;;;;;;5032890;27;20202;-66
2022/07/25 07:41:13;;;;;;;4.57;4.28;;;24.10;97.20;;;;;;5023172;28;20205;-67
2022/07/25 07:43:41;;;;;;;6.88;4.60;;;24.10;97.20;;;;;;5024181;28;20200;-67
2022/07/25 07:46:15;;;;;;;5.00;4.60;;;24.20;97.30;;;;;;5015385;28;20224;-67
2022/07/25 07:48:41;;;;;;;4.63;4.32;;;24.20;97.30;;;;;;5022063;27;20236;-66
2022/07/25 07:51:14;;;;;;;5.03;4.63;;;24.20;97.20;;;;;;5032140;28;20209;-68
2022/07/25 07:56:28;;;;;;;4.85;4.32;;;24.30;97.20;;;;;;5009005;28;20238;-68
2022/07/25 07:58:55;;;;;;;5.53;4.18;;;24.40;97.70;;;;;;5008220;28;20213;-68
2022/07/25 08:01:23;;;;;;;4.95;4.55;;;24.50;97.40;;;;;;5026854;28;20212;-68
2022/07/25 08:03:50;;;;;;;6.35;4.57;;;24.50;97.30;;;;;;5026600;28;20212;-68
2022/07/25 08:06:17;;;;;;;5.10;4.70;;;24.60;97.40;;;;;;5099030;27;20204;-67
2022/07/25 08:08:44;;;;;;;5.25;4.85;;;24.80;97.10;;;;;;5006915;28;20209;-68
2022/07/25 08:11:16;;;;;;;5.57;5.10;;;24.90;97.00;;;;;;5115681;27;20220;-67
2022/07/25 08:13:43;;;;;;;4.95;4.55;;;25.00;96.70;;;;;;5103693;27;20375;-67
2022/07/25 08:16:13;;;;;;;5.53;5.13;;;25.00;96.80;;;;;;5020083;28;20292;-68
2022/07/25 08:18:41;;;;;;;6.05;5.55;;;25.10;97.40;;;;;;5018910;27;20213;-68
2022/07/25 08:21:14;;;;;;;6.45;5.85;;;25.20;97.20;;;;;;5016817;28;20674;-68
2022/07/25 08:23:41;;;;;;;6.50;6.00;;;25.30;97.60;;;;;;5014681;28;20206;-68
2022/07/25 08:26:14;;;;;;;7.03;6.50;;;25.40;97.10;;;;;;5026955;27;20292;-68
2022/07/25 08:28:41;;;;;;;6.20;5.60;;;25.60;97.40;;;;;;5014122;28;20205;-68
2022/07/25 08:31:14;;;;;;;7.40;6.63;;;25.70;97.60;;;;;;5019238;28;20208;-68
2022/07/25 08:33:42;;;;;;;6.35;5.75;;;25.80;98.20;;;;;;5029723;28;20205;-68
2022/07/25 08:36:15;;;;;;;6.78;6.20;;;25.80;98.20;;;;;;5017237;28;20236;-67
2022/07/25 08:38:41;;;;;;;6.38;5.78;;;25.80;97.90;;;;;;5016916;28;20201;-68
2022/07/25 08:41:11;;;;;;;6.28;5.70;;;25.80;98.60;;;;;;5018815;28;20283;-68
2022/07/25 08:43:38;;;;;;;6.07;5.60;;;25.80;97.60;;;;;;5018813;28;20196;-68
2022/07/25 08:46:11;;;;;;;7.50;6.78;;;26.00;96.90;;;;;;5016714;28;20366;-66
2022/07/25 08:48:39;;;;;;;6.88;6.28;;;26.10;96.30;;;;;;5017503;28;20240;-68
2022/07/25 08:51:14;;;;;;;6.75;5.65;;;26.20;96.90;;;;;;5022853;27;20205;-67
2022/07/25 08:53:47;;;;;;;6.35;5.90;;;26.30;97.00;;;;;;5009843;28;20221;-68
2022/07/25 08:56:14;;;;;;;6.85;6.20;;;26.30;97.80;;;;;;5013762;28;20233;-67
2022/07/25 08:58:41;;;;;;;7.35;6.60;;;26.40;97.10;;;;;;5026224;27;20221;-67
2022/07/25 09:01:17;;;;;;;6.45;5.97;;;26.40;97.60;;;;;;5026648;28;20347;-67
2022/07/25 09:03:44;;;;;;;6.13;5.60;;;26.40;97.00;;;;;;5017849;28;20197;-67
2022/07/25 09:06:21;;;;;;;6.63;6.13;;;26.50;96.50;;;;;;5015471;28;20240;-67
2022/07/25 09:08:55;;;;;;;6.25;5.75;;;26.60;97.50;;;;;;5028283;27;20207;-67
2022/07/25 09:11:33;;;;;;;6.80;6.20;;;26.70;98.00;;;;;;5014999;28;20225;-67
2022/07/25 09:14:03;;;;;;;6.15;5.75;;;26.70;98.20;;;;;;5027225;28;20576;-67
2022/07/25 09:16:31;;;;;;;6.43;6.03;;;26.70;97.20;;;;;;5019296;28;20208;-68
2022/07/25 09:19:10;;;;;;;7.25;6.45;;;26.80;97.70;;;;;;5048370;27;20297;-67
2022/07/25 09:21:39;;;;;;;6.90;6.22;;;26.80;97.90;;;;;;5012523;28;20197;-67
2022/07/25 09:24:11;;;;;;;6.75;6.03;;;26.90;97.70;;;;;;5041309;27;20232;-67
2022/07/25 09:26:45;;;;;;;7.03;6.53;;;26.90;97.30;;;;;;5014256;28;20202;-68
2022/07/25 09:29:17;;;;;;;6.63;6.13;;;27.00;97.20;;;;;;5030093;28;20205;-67
2022/07/25 09:31:44;;;;;;;6.80;6.35;;;27.10;97.30;;;;;;5013714;28;20644;-67
2022/07/25 09:34:11;;;;;;;6.68;6.28;;;27.10;97.70;;;;;;5020077;28;20209;-67
2022/07/25 09:36:50;;;;;;;6.95;6.35;;;27.00;98.00;;;;;;5039106;28;20575;-67
2022/07/25 09:39:17;;;;;;;7.60;7.00;;;27.10;98.10;;;;;;5012852;28;20254;-67
2022/07/25 09:41:43;;;;;;;7.05;6.63;;;27.10;97.70;;;;;;5014245;28;20206;-67
2022/07/25 09:44:16;;;;;;;7.88;7.20;;;27.10;97.80;;;;;;5023809;28;20212;-68
2022/07/25 09:46:43;;;;;;;7.45;6.72;;;27.20;97.50;;;;;;5012003;28;20238;-67
2022/07/25 09:49:13;;;;;;;6.90;6.50;;;27.30;97.10;;;;;;5034220;27;20237;-67
2022/07/25 09:51:41;;;;;;;7.53;6.70;;;27.30;97.50;;;;;;5020263;28;20194;-67
2022/07/25 09:54:08;;;;;;;6.80;6.40;;;27.40;97.70;;;;;;5063916;27;20206;-67
2022/07/25 09:56:35;;;;;;;7.47;6.78;;;27.60;97.90;;;;;;5034763;27;20208;-67
2022/07/25 09:59:03;;;;;;;7.75;6.97;;;27.70;97.60;;;;;;5033894;27;20204;-68
2022/07/25 10:01:35;;;;;;;7.72;7.00;;;27.70;97.60;;;;;;5096348;27;20198;-67
2022/07/25 10:04:19;;;;;;;7.65;6.88;;;27.80;99.30;;;;;;5013632;28;20190;-67
2022/07/25 10:06:57;;;;;;;7.90;7.28;;;28.00;97.70;;;;;;5017785;28;20201;-67
2022/07/25 10:09:24;;;;;;;8.02;7.30;;;28.10;97.50;;;;;;5026197;27;20198;-67
2022/07/25 10:12:04;;;;;;;7.88;7.28;;;28.30;97.40;;;;;;5014269;28;20200;-67
2022/07/25 10:14:32;;;;;;;7.30;6.65;;;28.30;97.60;;;;;;5017988;28;20232;-67
2022/07/25 10:16:59;;;;;;;8.07;7.35;;;28.30;97.10;;;;;;5018613;28;20208;-67
2022/07/25 10:19:44;;;;;;;8.65;7.93;;;28.30;96.30;;;;;;5018588;28;20216;-67
2022/07/25 10:22:12;;;;;;;8.40;7.60;;;28.50;95.90;;;;;;5017314;28;20247;-67
2022/07/25 10:24:43;;;;;;;7.93;7.32;;;28.60;96.20;;;;;;5013451;28;20201;-67
2022/07/25 10:27:12;;;;;;;9.00;8.10;;;28.60;97.30;;;;;;5014371;28;20644;-67
2022/07/25 10:29:40;;;;;;;8.25;7.55;;;28.80;95.20;;;;;;5022787;28;20202;-67
2022/07/25 10:32:08;;;;;;;8.55;7.95;;;28.90;96.70;;;;;;5015475;28;20216;-67
2022/07/25 10:34:35;;;;;;;8.00;7.50;;;28.80;96.50;;;;;;5034559;28;20675;-67
2022/07/25 10:37:14;;;;;;;7.82;7.25;;;28.90;97.50;;;;;;5023082;28;20229;-67
2022/07/25 10:39:44;;;;;;;8.43;7.72;;;28.90;96.40;;;;;;5015187;28;20276;-67
2022/07/25 10:42:14;;;;;;;7.97;7.32;;;28.90;96.50;;;;;;5027826;28;20502;-67
2022/07/25 10:44:43;;;;;;;7.80;7.03;;;28.90;97.10;;;;;;5013110;28;20808;-67
2022/07/25 10:47:11;;;;;;;8.15;7.18;;;29.10;96.10;;;;;;5020971;28;20211;-67
2022/07/25 10:49:41;;;;;;;7.65;6.95;;;29.20;95.90;;;;;;5017256;28;20245;-67
2022/07/25 10:52:14;;;;;;;7.97;7.47;;;29.20;95.70;;;;;;5012641;28;20241;-67
2022/07/25 10:54:51;;;;;;;7.60;7.05;;;29.10;95.10;;;;;;5012674;28;20603;-67
2022/07/25 10:57:18;;;;;;;7.78;6.90;;;29.10;96.00;;;;;;5048214;27;20197;-67
2022/07/25 10:59:45;;;;;;;10.00;7.60;;;29.20;95.70;;;;;;5024911;28;20221;-67
2022/07/25 11:02:15;;;;;;;8.20;7.60;;;29.30;95.90;;;;;;5085569;27;20632;-67
2022/07/25 11:04:42;;;;;;;7.63;7.10;;;29.40;96.30;;;;;;5050109;27;20237;-67
2022/07/25 11:07:10;;;;;;;7.50;7.00;;;29.40;93.70;;;;;;5064266;27;20216;-67
2022/07/25 11:09:37;;;;;;;7.22;6.72;;;29.60;93.90;;;;;;5015693;28;20205;-67
2022/07/25 11:12:07;;;;;;;7.13;6.63;;;29.60;93.20;;;;;;5020960;28;20362;-67
2022/07/25 11:14:36;;;;;;;7.72;7.05;;;29.80;93.30;;;;;;5026995;28;20231;-67
2022/07/25 11:17:17;;;;;;;7.43;6.95;;;29.90;94.10;;;;;;5030328;27;20656;-67
2022/07/25 11:19:53;;;;;;;7.43;7.00;;;30.00;93.30;;;;;;5023764;28;20254;-67
2022/07/25 11:22:21;;;;;;;7.60;7.00;;;30.10;94.30;;;;;;5043437;27;20193;-68
2022/07/25 11:24:48;;;;;;;8.15;7.45;;;30.10;93.30;;;;;;5018347;28;20205;-68
2022/07/25 11:27:23;;;;;;;8.30;7.32;;;30.20;93.40;;;;;;5017742;28;20209;-68
2022/07/25 11:29:50;;;;;;;7.43;6.72;;;30.30;93.70;;;;;;5018137;28;20296;-68
2022/07/25 11:32:18;;;;;;;7.65;6.95;;;30.20;92.60;;;;;;5020045;27;20216;-68
2022/07/25 11:34:48;;;;;;;7.43;6.72;;;30.30;92.10;;;;;;5017274;28;20314;-68
2022/07/25 11:37:20;;;;;;;6.95;6.35;;;30.30;92.10;;;;;;5020515;27;20205;-68
2022/07/25 11:39:48;;;;;;;7.72;6.95;;;30.30;91.80;;;;;;5017915;28;20198;-66
2022/07/25 11:42:18;;;;;;;7.53;7.03;;;30.40;91.50;;;;;;5023854;27;20287;-66
2022/07/25 11:44:48;;;;;;;7.93;7.25;;;30.40;92.50;;;;;;5022036;27;20204;-66
2022/07/25 11:47:25;;;;;;;8.00;7.30;;;30.40;92.40;;;;;;5030861;28;20198;-66
2022/07/25 11:49:54;;;;;;;8.07;7.13;;;30.60;93.90;;;;;;5022666;28;20290;-66
2022/07/25 11:52:23;;;;;;;6.95;6.55;;;30.50;94.10;;;;;;5018035;28;20209;-66
2022/07/25 11:54:54;;;;;;;7.50;6.82;;;30.60;94.00;;;;;;5028051;27;20225;-66
2022/07/25 11:57:22;;;;;;;7.72;7.13;;;30.50;94.10;;;;;;5028369;28;20223;-65
2022/07/25 11:59:50;;;;;;;7.93;6.80;;;30.50;94.00;;;;;;5018500;28;20705;-65
2022/07/25 12:02:24;;;;;;;8.07;6.85;;;30.60;91.50;;;;;;5026547;28;20205;-66
2022/07/25 12:04:56;;;;;;;7.32;6.80;;;30.50;92.00;;;;;;5026211;28;20220;-66
2022/07/25 12:07:33;;;;;;;8.23;6.65;;;30.50;90.50;;;;;;5026576;28;20209;-66
2022/07/25 12:10:00;;;;;;;7.57;6.90;;;30.60;90.20;;;;;;5077900;27;20254;-65
2022/07/25 12:12:26;;;;;;;7.03;6.63;;;30.60;90.10;;;;;;5130811;27;20205;-66
2022/07/25 12:14:54;;;;;;;7.18;6.68;;;30.70;89.50;;;;;;5103869;27;20201;-66
2022/07/25 12:17:21;;;;;;;7.05;6.47;;;30.70;89.30;;;;;;5063193;27;20198;-66
2022/07/25 12:19:48;;;;;;;10.00;7.40;;;30.80;89.90;;;;;;5035674;27;20213;-66
2022/07/25 12:22:15;;;;;;;6.70;6.30;;;30.90;89.60;;;;;;5015433;28;20205;-66
2022/07/25 12:24:41;;;;;;;8.18;6.47;;;30.90;89.40;;;;;;5044399;27;20567;-66
2022/07/25 12:27:08;;;;;;;6.90;6.50;;;31.00;91.80;;;;;;5100896;27;20365;-67
2022/07/25 12:29:35;;;;;;;7.50;6.93;;;30.90;91.20;;;;;;5007888;28;20206;-67
2022/07/25 12:32:03;;;;;;;6.93;6.43;;;30.90;90.50;;;;;;5006377;28;20206;-67
2022/07/25 12:34:30;;;;;;;6.78;6.10;;;30.90;90.40;;;;;;5010076;28;20583;-67
2022/07/25 12:36:57;;;;;;;7.35;6.65;;;30.90;87.60;;;;;;5014583;28;20800;-67
2022/07/25 12:39:24;;;;;;;6.38;5.97;;;31.00;87.00;;;;;;5048444;27;20278;-67
2022/07/25 12:41:50;;;;;;;12.98;6.70;;;31.10;85.40;;;;;;5033249;27;20209;-67
2022/07/25 12:44:17;;;;;;;7.25;6.68;;;31.20;90.70;;;;;;5013224;28;20210;-67
2022/07/25 12:46:44;;;;;;;6.93;6.55;;;31.20;90.00;;;;;;5011828;28;20209;-67
2022/07/25 12:49:12;;;;;;;6.72;6.30;;;31.30;90.00;;;;;;5013313;28;20233;-67
2022/07/25 12:51:39;;;;;;;7.47;6.75;;;31.50;88.00;;;;;;5022365;28;20216;-67
2022/07/25 12:54:05;;;;;;;6.72;6.32;;;31.50;90.60;;;;;;5017525;28;20212;-67
2022/07/25 12:56:32;;;;;;;6.75;6.35;;;31.50;91.00;;;;;;5011787;28;20274;-67
2022/07/25 12:58:59;;;;;;;8.35;7.43;;;31.30;91.00;;;;;;5010125;28;20201;-67